Time;durP1;ratioP1;P1;durP2;ratioP2;P2;SDS_P1;SDS_P2;PMS_P1;PMS_P2;Temp;Humidity;BMP_temperature;BMP_pressure;BME280_temperature;BME280_humidity;BME280_pressure;Samples;Min_cycle;Max_cycle;Signal;HPM_P1;HPM_P2
2022/08/21 00:02:57;;;;;;;8.97;3.90;;;;;;;;;;4970444;28;20203;-85
2022/08/21 00:06:02;;;;;;;3.57;3.27;;;;;;;;;;4966381;28;20195;-84
2022/08/21 00:09:08;;;;;;;3.83;3.50;;;;;;;;;;4972878;28;20226;-85
2022/08/21 00:12:13;;;;;;;6.13;4.23;;;;;;;;;;4963943;28;20210;-84
2022/08/21 00:15:21;;;;;;;5.17;3.57;;;;;;;;;;4977287;28;20175;-85
2022/08/21 00:18:25;;;;;;;5.00;3.23;;;;;;;;;;4973459;28;20219;-85
2022/08/21 00:21:29;;;;;;;6.13;3.67;;;;;;;;;;4972218;28;20202;-85
2022/08/21 00:24:33;;;;;;;3.80;2.90;;;;;;;;;;4972750;28;20673;-85
2022/08/21 00:27:38;;;;;;;3.63;2.90;;;;;;;;;;4963155;28;20225;-86
2022/08/21 00:30:43;;;;;;;5.77;3.00;;;;;;;;;;4983024;28;20202;-86
2022/08/21 00:33:47;;;;;;;5.60;3.27;;;;;;;;;;4967285;28;20194;-86
2022/08/21 00:36:51;;;;;;;3.87;3.47;;;;;;;;;;4964525;28;20622;-86
2022/08/21 00:39:55;;;;;;;6.43;3.37;;;;;;;;;;4974110;28;20208;-86
2022/08/21 00:43:02;;;;;;;5.20;3.17;;;;;;;;;;4988201;28;20206;-84
2022/08/21 00:46:07;;;;;;;4.30;2.87;;;;;;;;;;4966062;28;20202;-86
2022/08/21 00:49:12;;;;;;;5.60;3.20;;;;;;;;;;4982016;28;20226;-86
2022/08/21 00:52:26;;;;;;;6.40;3.60;;;;;;;;;;4983815;28;20178;-86
2022/08/21 00:55:32;;;;;;;5.27;3.20;;;;;;;;;;4970593;28;20214;-86
2022/08/21 00:58:39;;;;;;;3.43;3.13;;;;;;;;;;4953931;28;20226;-86
2022/08/21 01:01:44;;;;;;;6.17;3.30;;;;;;;;;;5001795;28;20202;-86
2022/08/21 01:04:48;;;;;;;3.70;3.40;;;;;;;;;;4978938;28;20215;-86
2022/08/21 01:07:56;;;;;;;4.57;3.10;;;;;;;;;;4963268;28;20235;-86
2022/08/21 01:11:01;;;;;;;6.23;3.50;;;;;;;;;;4952797;28;20175;-86
2022/08/21 01:14:06;;;;;;;4.60;3.43;;;;;;;;;;4971372;28;20190;-86
2022/08/21 01:17:12;;;;;;;8.87;3.70;;;;;;;;;;4974978;28;20186;-86
2022/08/21 01:20:17;;;;;;;13.63;3.40;;;;;;;;;;4967266;28;20198;-86
2022/08/21 01:23:21;;;;;;;3.80;3.20;;;;;;;;;;4990260;28;20202;-86
2022/08/21 01:26:28;;;;;;;3.63;3.33;;;;;;;;;;4975131;28;20206;-86
2022/08/21 01:29:42;;;;;;;4.47;3.07;;;;;;;;;;4963187;28;20215;-85
2022/08/21 01:32:47;;;;;;;4.50;2.93;;;;;;;;;;4979354;28;20198;-86
2022/08/21 01:35:52;;;;;;;6.13;3.13;;;;;;;;;;4993764;28;20633;-85
2022/08/21 01:38:56;;;;;;;4.53;2.80;;;;;;;;;;4981181;28;20206;-85
2022/08/21 01:42:01;;;;;;;4.97;3.47;;;;;;;;;;4981296;28;20206;-85
2022/08/21 01:45:07;;;;;;;3.40;3.10;;;;;;;;;;4972754;28;20186;-85
2022/08/21 01:48:11;;;;;;;3.43;3.13;;;;;;;;;;4983255;28;20230;-85
2022/08/21 01:51:16;;;;;;;4.80;3.00;;;;;;;;;;4985023;28;20202;-85
2022/08/21 01:54:20;;;;;;;3.60;3.10;;;;;;;;;;4973721;28;20193;-85
2022/08/21 01:57:25;;;;;;;3.37;3.07;;;;;;;;;;4977137;28;20642;-86
2022/08/21 02:00:29;;;;;;;3.83;3.30;;;;;;;;;;4954584;28;20194;-85
2022/08/21 02:03:33;;;;;;;4.23;3.50;;;;;;;;;;4954429;28;20171;-86
2022/08/21 02:06:38;;;;;;;3.60;3.30;;;;;;;;;;4960387;28;20198;-86
2022/08/21 02:09:42;;;;;;;3.47;3.00;;;;;;;;;;4928902;28;1112883;-85
2022/08/21 02:12:46;;;;;;;5.23;3.57;;;;;;;;;;4973453;28;20201;-85
2022/08/21 02:15:50;;;;;;;3.60;3.20;;;;;;;;;;4974873;28;20186;-85
2022/08/21 02:18:54;;;;;;;4.97;3.13;;;;;;;;;;4957144;28;20222;-85
2022/08/21 02:21:59;;;;;;;4.83;3.10;;;;;;;;;;4968826;28;20206;-85
2022/08/21 02:25:04;;;;;;;3.50;3.20;;;;;;;;;;4985637;28;20174;-85
2022/08/21 02:28:12;;;;;;;3.43;3.10;;;;;;;;;;4976848;28;20230;-86
2022/08/21 02:31:16;;;;;;;3.40;3.10;;;;;;;;;;4969976;28;20190;-85
2022/08/21 02:34:21;;;;;;;5.33;3.43;;;;;;;;;;4979683;28;20202;-85
2022/08/21 02:37:25;;;;;;;5.07;3.30;;;;;;;;;;4985602;28;20197;-85
2022/08/21 02:40:33;;;;;;;4.23;3.27;;;;;;;;;;4966283;28;20554;-85
2022/08/21 02:43:36;;;;;;;5.20;3.50;;;;;;;;;;4985633;28;20194;-85
2022/08/21 02:46:41;;;;;;;6.47;3.23;;;;;;;;;;4979711;28;20198;-85
2022/08/21 02:49:45;;;;;;;3.67;3.13;;;;;;;;;;4985497;28;20214;-85
2022/08/21 02:52:50;;;;;;;7.33;3.23;;;;;;;;;;4984374;28;20197;-85
2022/08/21 02:55:57;;;;;;;3.30;3.00;;;;;;;;;;4972916;28;20194;-86
2022/08/21 02:59:01;;;;;;;4.63;3.27;;;;;;;;;;4985516;28;20214;-85
2022/08/21 03:02:05;;;;;;;5.07;3.43;;;;;;;;;;4974338;28;20182;-85
2022/08/21 03:05:10;;;;;;;4.07;3.53;;;;;;;;;;4980363;28;20693;-85
2022/08/21 03:08:15;;;;;;;4.00;3.50;;;;;;;;;;4980206;28;20230;-86
2022/08/21 03:11:20;;;;;;;3.50;3.20;;;;;;;;;;4996101;28;20194;-85
2022/08/21 03:14:25;;;;;;;3.60;3.30;;;;;;;;;;4984759;28;20190;-85
2022/08/21 03:17:29;;;;;;;6.27;3.40;;;;;;;;;;4993729;28;20542;-85
2022/08/21 03:20:34;;;;;;;4.33;3.53;;;;;;;;;;4978569;28;20534;-85
2022/08/21 03:23:39;;;;;;;4.03;3.60;;;;;;;;;;4973401;28;20186;-85
2022/08/21 03:26:43;;;;;;;6.47;4.23;;;;;;;;;;4995789;28;20174;-85
2022/08/21 03:29:47;;;;;;;4.20;3.80;;;;;;;;;;4972202;28;20215;-85
2022/08/21 03:32:52;;;;;;;4.23;3.87;;;;;;;;;;4965450;28;20206;-85
2022/08/21 03:36:04;;;;;;;6.10;3.60;;;;;;;;;;4969759;28;20194;-85
2022/08/21 03:39:07;;;;;;;5.07;4.00;;;;;;;;;;4984130;28;20221;-85
2022/08/21 03:42:11;;;;;;;7.03;4.07;;;;;;;;;;4984014;28;20186;-85
2022/08/21 03:45:17;;;;;;;6.40;3.70;;;;;;;;;;4972707;28;20197;-85
2022/08/21 03:48:21;;;;;;;4.40;3.90;;;;;;;;;;4993556;28;20569;-85
2022/08/21 03:51:25;;;;;;;9.27;3.80;;;;;;;;;;4972958;28;20197;-85
2022/08/21 03:54:30;;;;;;;8.17;3.50;;;;;;;;;;4973165;28;20633;-85
2022/08/21 03:57:34;;;;;;;5.03;3.47;;;;;;;;;;4984222;28;20189;-86
2022/08/21 04:00:38;;;;;;;6.23;4.00;;;;;;;;;;4973614;28;20645;-85
2022/08/21 04:03:42;;;;;;;7.00;3.73;;;;;;;;;;4964960;28;20182;-85
2022/08/21 04:06:47;;;;;;;7.67;3.57;;;;;;;;;;4956421;28;20195;-85
2022/08/21 04:09:50;;;;;;;4.53;3.63;;;;;;;;;;4984199;28;20210;-85
2022/08/21 04:12:55;;;;;;;4.27;3.87;;;;;;;;;;4970374;28;20195;-85
2022/08/21 04:15:59;;;;;;;6.27;4.00;;;;;;;;;;4980201;28;20186;-85
2022/08/21 04:19:03;;;;;;;9.23;4.03;;;;;;;;;;4984237;28;20542;-86
2022/08/21 04:22:08;;;;;;;5.13;3.50;;;;;;;;;;4984457;28;20186;-85
2022/08/21 04:25:14;;;;;;;7.30;3.60;;;;;;;;;;4954473;28;20532;-83
2022/08/21 04:28:18;;;;;;;4.07;3.23;;;;;;;;;;4970463;28;20226;-83
2022/08/21 04:31:22;;;;;;;4.97;3.00;;;;;;;;;;4975215;28;20198;-84
2022/08/21 04:34:26;;;;;;;3.57;3.27;;;;;;;;;;4975692;28;20194;-83
2022/08/21 04:37:31;;;;;;;6.80;3.20;;;;;;;;;;4990797;28;20199;-87
2022/08/21 04:40:35;;;;;;;4.03;3.03;;;;;;;;;;4966419;28;20187;-83
2022/08/21 04:43:40;;;;;;;4.43;3.33;;;;;;;;;;4972820;28;20207;-83
2022/08/21 04:46:44;;;;;;;4.77;3.30;;;;;;;;;;4966780;28;20199;-83
2022/08/21 04:49:48;;;;;;;5.77;3.20;;;;;;;;;;4971114;28;20217;-84
2022/08/21 04:52:53;;;;;;;10.03;3.27;;;;;;;;;;5006722;28;20542;-83
2022/08/21 04:56:04;;;;;;;3.30;2.93;;;;;;;;;;4987891;28;20207;-83
2022/08/21 04:59:22;;;;;;;4.80;2.90;;;;;;;;;;4956495;28;20214;-84
2022/08/21 05:02:26;;;;;;;7.60;3.00;;;;;;;;;;4978368;28;20179;-83
2022/08/21 05:05:30;;;;;;;8.07;3.13;;;;;;;;;;4969944;28;20202;-83
2022/08/21 05:08:37;;;;;;;5.37;3.30;;;;;;;;;;4991658;28;20233;-83
2022/08/21 05:11:42;;;;;;;6.63;3.30;;;;;;;;;;4990058;28;20179;-90
2022/08/21 05:14:46;;;;;;;4.07;2.70;;;;;;;;;;4990397;28;20197;-85
2022/08/21 05:17:51;;;;;;;3.20;2.90;;;;;;;;;;4978937;28;20225;-85
2022/08/21 05:20:55;;;;;;;3.60;2.70;;;;;;;;;;5006409;28;20174;-84
2022/08/21 05:23:59;;;;;;;3.33;2.63;;;;;;;;;;4965637;28;20202;-84
2022/08/21 05:27:04;;;;;;;4.23;2.77;;;;;;;;;;4975105;28;20186;-86
2022/08/21 05:30:09;;;;;;;3.57;2.47;;;;;;;;;;4978152;28;20214;-85
2022/08/21 05:33:13;;;;;;;2.87;2.67;;;;;;;;;;4982377;28;20179;-84
2022/08/21 05:36:18;;;;;;;3.43;2.60;;;;;;;;;;4992164;28;20634;-85
2022/08/21 05:39:22;;;;;;;3.30;2.73;;;;;;;;;;4991275;28;20210;-85
2022/08/21 05:42:27;;;;;;;4.80;2.70;;;;;;;;;;4972615;28;20183;-85
2022/08/21 05:45:32;;;;;;;6.50;2.97;;;;;;;;;;4979515;28;20629;-85
2022/08/21 05:48:37;;;;;;;3.10;2.80;;;;;;;;;;4985704;28;20217;-85
2022/08/21 05:51:41;;;;;;;3.10;2.70;;;;;;;;;;4978903;28;20182;-85
2022/08/21 05:54:46;;;;;;;4.63;3.00;;;;;;;;;;4978107;28;20198;-90
2022/08/21 05:57:50;;;;;;;4.17;2.60;;;;;;;;;;4958621;28;20725;-84
2022/08/21 06:00:55;;;;;;;15.67;2.73;;;;;;;;;;4970473;28;20199;-86
2022/08/21 06:03:59;;;;;;;5.73;3.93;;;;;;;;;;4995285;28;20198;-86
2022/08/21 06:07:03;;;;;;;8.67;6.47;;;;;;;;;;4968070;28;20182;-85
2022/08/21 06:10:08;;;;;;;10.53;7.70;;;;;;;;;;4981061;28;20214;-85
2022/08/21 06:13:13;;;;;;;39.40;26.70;;;;;;;;;;4986867;28;20221;-84
2022/08/21 06:16:17;;;;;;;6.00;5.00;;;;;;;;;;4998060;28;20181;-87
2022/08/21 06:19:21;;;;;;;5.20;4.23;;;;;;;;;;4975725;28;20214;-85
2022/08/21 06:22:25;;;;;;;3.70;3.40;;;;;;;;;;4976211;28;20550;-85
2022/08/21 06:25:30;;;;;;;5.53;3.40;;;;;;;;;;4985430;28;20206;-87
2022/08/21 06:28:36;;;;;;;4.93;3.37;;;;;;;;;;4974159;28;20229;-86
2022/08/21 06:31:46;;;;;;;4.97;3.20;;;;;;;;;;4998065;28;20190;-88
2022/08/21 06:34:50;;;;;;;5.03;3.87;;;;;;;;;;4986358;28;20186;-85
2022/08/21 06:37:57;;;;;;;5.97;3.53;;;;;;;;;;4994676;28;20223;-85
2022/08/21 06:41:01;;;;;;;7.60;5.43;;;;;;;;;;4979736;28;20203;-86
2022/08/21 06:44:06;;;;;;;7.33;4.70;;;;;;;;;;4981865;28;20202;-83
2022/08/21 06:47:10;;;;;;;5.07;4.00;;;;;;;;;;4976239;28;20178;-83
2022/08/21 06:50:14;;;;;;;5.47;3.93;;;;;;;;;;4974797;28;20210;-84
2022/08/21 06:53:20;;;;;;;6.03;3.73;;;;;;;;;;4977988;28;20195;-83
2022/08/21 06:56:24;;;;;;;4.50;4.10;;;;;;;;;;4967006;28;20191;-83
2022/08/21 06:59:28;;;;;;;5.33;4.07;;;;;;;;;;4967365;28;20215;-84
2022/08/21 07:02:35;;;;;;;5.20;4.20;;;;;;;;;;4967366;28;20178;-83
2022/08/21 07:05:39;;;;;;;6.70;4.90;;;;;;;;;;4981584;28;20433;-84
2022/08/21 07:08:43;;;;;;;6.87;4.20;;;;;;;;;;4975437;28;20234;-83
2022/08/21 07:11:51;;;;;;;7.70;4.50;;;;;;;;;;4986262;28;20645;-84
2022/08/21 07:14:55;;;;;;;9.97;5.03;;;;;;;;;;4986828;28;20187;-84
2022/08/21 07:17:59;;;;;;;5.13;4.70;;;;;;;;;;4995921;28;20221;-83
2022/08/21 07:21:07;;;;;;;5.17;4.40;;;;;;;;;;4987877;28;20215;-84
2022/08/21 07:24:11;;;;;;;7.93;5.17;;;;;;;;;;4972546;28;20218;-84
2022/08/21 07:27:15;;;;;;;6.13;5.30;;;;;;;;;;4997852;28;20646;-83
2022/08/21 07:30:19;;;;;;;8.87;5.50;;;;;;;;;;4993956;28;20210;-85
2022/08/21 07:33:25;;;;;;;5.10;4.60;;;;;;;;;;4975892;28;20669;-84
2022/08/21 07:36:29;;;;;;;6.27;5.37;;;;;;;;;;4969557;28;20207;-84
2022/08/21 07:39:33;;;;;;;8.77;5.03;;;;;;;;;;4970939;28;20209;-84
2022/08/21 07:42:42;;;;;;;8.40;5.17;;;;;;;;;;4972859;28;20194;-84
2022/08/21 07:45:49;;;;;;;7.90;5.60;;;;;;;;;;4985593;28;20642;-84
2022/08/21 07:48:53;;;;;;;6.87;5.70;;;;;;;;;;4985490;28;20214;-84
2022/08/21 07:51:57;;;;;;;6.50;5.40;;;;;;;;;;4985184;28;20186;-85
2022/08/21 07:55:01;;;;;;;5.53;4.43;;;;;;;;;;4991788;28;20194;-84
2022/08/21 07:58:07;;;;;;;6.83;5.57;;;;;;;;;;4984979;28;20221;-84
2022/08/21 08:01:10;;;;;;;8.07;7.27;;;;;;;;;;4996212;28;20515;-84
2022/08/21 08:04:15;;;;;;;6.87;5.90;;;;;;;;;;4995895;28;20182;-84
2022/08/21 08:07:19;;;;;;;9.33;7.67;;;;;;;;;;4972641;28;20202;-84
2022/08/21 08:10:24;;;;;;;8.60;7.70;;;;;;;;;;4956509;28;20211;-84
2022/08/21 08:13:28;;;;;;;8.27;7.37;;;;;;;;;;4966495;28;20203;-84
2022/08/21 08:16:32;;;;;;;7.63;6.93;;;;;;;;;;4966782;28;20198;-84
2022/08/21 08:19:36;;;;;;;9.47;6.73;;;;;;;;;;4970269;28;20555;-84
2022/08/21 08:22:41;;;;;;;7.63;5.97;;;;;;;;;;4975551;28;20199;-84
2022/08/21 08:25:48;;;;;;;6.30;5.70;;;;;;;;;;4972649;28;20182;-85
2022/08/21 08:28:52;;;;;;;7.13;5.50;;;;;;;;;;4977217;28;20224;-84
2022/08/21 08:31:57;;;;;;;6.73;5.40;;;;;;;;;;4966181;28;20664;-84
2022/08/21 08:35:01;;;;;;;6.17;5.57;;;;;;;;;;4966312;28;20191;-85
2022/08/21 08:38:05;;;;;;;6.40;5.70;;;;;;;;;;4965116;28;20233;-84
2022/08/21 08:41:14;;;;;;;7.50;5.27;;;;;;;;;;4974173;28;20196;-85
2022/08/21 08:44:19;;;;;;;7.33;5.23;;;;;;;;;;4976066;28;20191;-85
2022/08/21 08:47:25;;;;;;;5.53;4.13;;;;;;;;;;4974015;28;20210;-85
2022/08/21 08:50:48;;;;;;;6.10;5.10;;;;;;;;;;4958067;28;20218;-85
2022/08/21 08:54:00;;;;;;;6.07;4.70;;;;;;;;;;4964498;28;20183;-85
2022/08/21 08:57:09;;;;;;;7.37;5.80;;;;;;;;;;4966781;28;20191;-85
2022/08/21 09:00:16;;;;;;;9.37;6.40;;;;;;;;;;4966295;28;20187;-85
2022/08/21 09:03:23;;;;;;;9.40;5.83;;;;;;;;;;4962905;28;20181;-84
2022/08/21 09:06:59;;;;;;;8.07;5.73;;;;;;;;;;4985598;28;20204;-84
2022/08/21 09:10:07;;;;;;;7.27;5.90;;;;;;;;;;4973424;28;20216;-86
2022/08/21 09:13:46;;;;;;;8.80;5.87;;;;;;;;;;4984270;28;20195;-85
2022/08/21 09:17:10;;;;;;;7.97;6.10;;;;;;;;;;4982651;28;20198;-84
2022/08/21 09:20:23;;;;;;;8.32;5.20;;;;;;;;;;4963893;28;20184;-85
2022/08/21 09:23:59;;;;;;;7.05;5.38;;;;;;;;;;4953698;28;20185;-84
2022/08/21 09:27:12;;;;;;;6.13;4.72;;;;;;;;;;4964986;28;20176;-88
2022/08/21 09:30:19;;;;;;;12.70;5.15;;;;;;;;;;4955890;28;20217;-88
2022/08/21 09:33:23;;;;;;;7.22;6.00;;;;;;;;;;4967938;28;20188;-88
2022/08/21 09:36:41;;;;;;;5.40;4.85;;;;;;;;;;4963857;28;20176;-88
2022/08/21 09:39:45;;;;;;;6.70;4.75;;;;;;;;;;4967921;28;20703;-87
2022/08/21 09:43:03;;;;;;;5.00;4.50;;;;;;;;;;4983619;28;20183;-89
2022/08/21 09:46:19;;;;;;;5.57;5.07;;;;;;;;;;4964626;28;20188;-88
2022/08/21 09:49:32;;;;;;;5.93;5.28;;;;;;;;;;4969672;28;20230;-89
2022/08/21 09:52:43;;;;;;;5.38;4.88;;;;;;;;;;4952618;28;20178;-88
2022/08/21 09:59:24;;;;;;;3.85;3.53;;;;;;;;;;4977207;28;20222;-87
2022/08/21 10:02:33;;;;;;;5.82;5.28;;;;;;;;;;4963243;28;20187;-87
2022/08/21 10:05:38;;;;;;;6.10;4.35;;;;;;;;;;4971063;28;20199;-89
2022/08/21 10:08:43;;;;;;;4.50;3.97;;;;;;;;;;4976664;28;20230;-87
2022/08/21 10:12:19;;;;;;;4.57;3.65;;;;;;;;;;4982914;28;20229;-87
2022/08/21 10:15:51;;;;;;;5.28;4.78;;;;;;;;;;4986300;28;20185;-87
2022/08/21 10:19:14;;;;;;;4.47;3.60;;;;;;;;;;4973940;28;20219;-87
2022/08/21 10:22:39;;;;;;;6.00;3.53;;;;;;;;;;4985720;28;20183;-87
2022/08/21 10:25:55;;;;;;;3.33;3.03;;;;;;;;;;4986450;28;20184;-87
2022/08/21 10:29:44;;;;;;;5.85;3.50;;;;;;;;;;4968561;28;20713;-86
2022/08/21 10:33:03;;;;;;;4.20;3.80;;;;;;;;;;4955684;28;20196;-87
2022/08/21 10:36:35;;;;;;;4.53;4.13;;;;;;;;;;4966736;28;20183;-86
2022/08/21 10:39:56;;;;;;;4.53;3.40;;;;;;;;;;4965573;28;20229;-86
2022/08/21 10:43:04;;;;;;;3.88;3.40;;;;;;;;;;4966319;28;20187;-86
2022/08/21 10:46:44;;;;;;;4.70;3.88;;;;;;;;;;4973798;28;20196;-87
2022/08/21 10:49:54;;;;;;;5.03;4.28;;;;;;;;;;4996513;28;20185;-87
2022/08/21 10:53:17;;;;;;;5.28;3.15;;;;;;;;;;4984397;28;20206;-87
2022/08/21 10:56:34;;;;;;;2.70;2.50;;;;;;;;;;4984831;28;20542;-88
2022/08/21 10:59:44;;;;;;;2.78;2.58;;;;;;;;;;4972539;28;20234;-89
2022/08/21 11:03:00;;;;;;;4.07;3.53;;;;;;;;;;4981810;28;20199;-89
2022/08/21 11:06:12;;;;;;;3.55;3.25;;;;;;;;;;4956073;28;20191;-90
2022/08/21 11:09:23;;;;;;;3.30;2.97;;;;;;;;;;4973828;28;20222;-90
2022/08/21 11:12:38;;;;;;;2.85;2.63;;;;;;;;;;4976307;28;20195;-90
2022/08/21 11:16:15;;;;;;;5.70;2.85;;;;;;;;;;4973280;28;20195;-87
2022/08/21 11:19:47;;;;;;;4.15;2.63;;;;;;;;;;4983524;28;20218;-87
2022/08/21 11:23:05;;;;;;;4.07;2.33;;;;;;;;;;4991572;28;20190;-87
2022/08/21 11:26:37;;;;;;;2.90;2.58;;;;;;;;;;4973024;28;20198;-87
2022/08/21 11:29:43;;;;;;;3.20;2.38;;;;;;;;;;4972391;28;20223;-87
2022/08/21 11:32:58;;;;;;;5.45;2.70;;;;;;;;;;4984751;28;20183;-87
2022/08/21 11:36:11;;;;;;;5.43;2.85;;;;;;;;;;4989492;28;20199;-87
2022/08/21 11:39:45;;;;;;;3.00;2.72;;;;;;;;;;4977385;28;20206;-87
2022/08/21 11:42:53;;;;;;;2.55;2.35;;;;;;;;;;4978437;28;20183;-87
2022/08/21 11:46:07;;;;;;;3.60;3.05;;;;;;;;;;4984369;28;20191;-87
2022/08/21 11:49:23;;;;;;;3.95;2.67;;;;;;;;;;4974237;28;20218;-88
2022/08/21 11:52:42;;;;;;;2.85;2.60;;;;;;;;;;4971453;28;20222;-88
2022/08/21 11:55:56;;;;;;;4.53;3.00;;;;;;;;;;4987734;28;20190;-88
2022/08/21 11:59:20;;;;;;;3.20;2.72;;;;;;;;;;4985201;28;20214;-87
2022/08/21 12:02:35;;;;;;;3.55;2.70;;;;;;;;;;4981259;28;20575;-87
2022/08/21 12:05:56;;;;;;;4.10;2.90;;;;;;;;;;4983971;28;20190;-86
2022/08/21 12:09:04;;;;;;;3.25;2.63;;;;;;;;;;4982231;28;20693;-86
2022/08/21 12:12:24;;;;;;;3.72;3.00;;;;;;;;;;4983197;28;20566;-86
2022/08/21 12:15:29;;;;;;;3.35;2.88;;;;;;;;;;4970764;28;20186;-86
2022/08/21 12:18:34;;;;;;;3.13;2.80;;;;;;;;;;4990347;28;20231;-86
2022/08/21 12:22:00;;;;;;;5.13;2.97;;;;;;;;;;4972537;28;20183;-87
2022/08/21 12:25:09;;;;;;;6.47;2.75;;;;;;;;;;4971131;28;20191;-86
2022/08/21 12:28:23;;;;;;;2.78;2.58;;;;;;;;;;4983109;28;20218;-86
2022/08/21 12:31:27;;;;;;;3.10;2.63;;;;;;;;;;4982238;28;20206;-86
2022/08/21 12:34:46;;;;;;;4.60;3.38;;;;;;;;;;4990472;28;20183;-87
2022/08/21 12:37:58;;;;;;;4.80;4.15;;;;;;;;;;4983991;28;20222;-86
2022/08/21 12:41:11;;;;;;;4.97;3.78;;;;;;;;;;4972407;28;20178;-87
2022/08/21 12:44:21;;;;;;;5.93;3.58;;;;;;;;;;4968412;28;20545;-87
2022/08/21 12:47:43;;;;;;;4.05;3.50;;;;;;;;;;4969279;28;20542;-86
2022/08/21 12:51:12;;;;;;;4.70;3.08;;;;;;;;;;4978187;28;20218;-86
2022/08/21 12:54:30;;;;;;;4.05;2.20;;;;;;;;;;4963201;28;20179;-87
2022/08/21 12:57:37;;;;;;;3.05;2.58;;;;;;;;;;4979038;28;20202;-87
2022/08/21 13:00:50;;;;;;;3.00;2.40;;;;;;;;;;4966254;28;20198;-87
2022/08/21 13:03:57;;;;;;;3.30;2.40;;;;;;;;;;4982367;28;20206;-87
2022/08/21 13:07:07;;;;;;;4.13;2.58;;;;;;;;;;4979395;28;20190;-87
2022/08/21 13:10:24;;;;;;;3.38;2.60;;;;;;;;;;4970991;28;20207;-87
2022/08/21 13:13:30;;;;;;;2.67;2.30;;;;;;;;;;4985308;28;20200;-87
2022/08/21 13:16:34;;;;;;;3.65;2.50;;;;;;;;;;4958868;28;20187;-83
2022/08/21 13:19:38;;;;;;;3.38;2.70;;;;;;;;;;4983046;28;20210;-84
2022/08/21 13:22:43;;;;;;;3.35;2.50;;;;;;;;;;4982176;28;20178;-84
2022/08/21 13:25:47;;;;;;;3.25;2.65;;;;;;;;;;4983168;28;20626;-84
2022/08/21 13:28:52;;;;;;;5.40;2.63;;;;;;;;;;4994435;28;20222;-83
2022/08/21 13:32:00;;;;;;;2.83;2.50;;;;;;;;;;4972141;28;20210;-83
2022/08/21 13:35:14;;;;;;;2.55;2.10;;;;;;;;;;4982490;28;20199;-83
2022/08/21 13:38:25;;;;;;;4.65;2.13;;;;;;;;;;4971645;28;20210;-83
2022/08/21 13:41:33;;;;;;;4.82;2.50;;;;;;;;;;4987377;28;20179;-83
2022/08/21 13:44:45;;;;;;;2.58;1.98;;;;;;;;;;4998900;28;20174;-83
2022/08/21 13:47:50;;;;;;;3.58;2.00;;;;;;;;;;4998549;28;20218;-83
2022/08/21 13:50:56;;;;;;;2.67;2.00;;;;;;;;;;4985514;28;20186;-84
2022/08/21 13:54:00;;;;;;;3.20;2.03;;;;;;;;;;4986407;28;20182;-83
2022/08/21 13:57:16;;;;;;;3.58;2.30;;;;;;;;;;4974125;28;20202;-83
2022/08/21 14:00:27;;;;;;;5.45;2.20;;;;;;;;;;4975317;28;20492;-84
2022/08/21 14:03:41;;;;;;;3.47;2.50;;;;;;;;;;4986953;28;20210;-84
2022/08/21 14:06:46;;;;;;;5.90;2.33;;;;;;;;;;4986884;28;20199;-83
2022/08/21 14:09:50;;;;;;;2.88;2.10;;;;;;;;;;4975392;28;20673;-83
2022/08/21 14:12:58;;;;;;;3.25;2.00;;;;;;;;;;4998286;28;20202;-83
2022/08/21 14:16:10;;;;;;;6.40;2.25;;;;;;;;;;4976099;28;20542;-83
2022/08/21 14:19:21;;;;;;;2.85;2.08;;;;;;;;;;4984685;28;20214;-83
2022/08/21 14:22:45;;;;;;;3.40;2.08;;;;;;;;;;4987301;28;20179;-84
2022/08/21 14:25:49;;;;;;;4.22;2.30;;;;;;;;;;4989116;28;20183;-83
2022/08/21 14:28:59;;;;;;;2.75;2.38;;;;;;;;;;4987617;28;20218;-83
2022/08/21 14:32:16;;;;;;;4.53;2.30;;;;;;;;;;4987333;28;20211;-83
2022/08/21 14:35:21;;;;;;;2.55;2.15;;;;;;;;;;4976017;28;20183;-83
2022/08/21 14:38:27;;;;;;;2.65;2.45;;;;;;;;;;4987520;28;20218;-83
2022/08/21 14:41:31;;;;;;;6.35;2.10;;;;;;;;;;4998563;28;20187;-84
2022/08/21 14:44:36;;;;;;;4.18;2.15;;;;;;;;;;4977879;28;20179;-84
2022/08/21 14:47:41;;;;;;;2.80;2.30;;;;;;;;;;4989176;28;20186;-83
2022/08/21 14:50:45;;;;;;;5.43;2.38;;;;;;;;;;4999433;28;20209;-84
2022/08/21 14:53:50;;;;;;;2.72;2.35;;;;;;;;;;5000544;28;20190;-83
2022/08/21 14:56:55;;;;;;;3.25;2.30;;;;;;;;;;4969700;28;20206;-83
2022/08/21 15:00:00;;;;;;;2.53;2.33;;;;;;;;;;4965845;28;20187;-84
2022/08/21 15:03:04;;;;;;;5.28;2.35;;;;;;;;;;4967408;28;20191;-83
2022/08/21 15:06:09;;;;;;;2.88;2.30;;;;;;;;;;4980595;28;20206;-83
2022/08/21 15:09:14;;;;;;;3.42;2.10;;;;;;;;;;4974704;28;20233;-83
2022/08/21 15:12:18;;;;;;;5.40;2.65;;;;;;;;;;4985586;28;20215;-83
2022/08/21 15:15:22;;;;;;;4.75;2.50;;;;;;;;;;4998035;28;20186;-83
2022/08/21 15:18:28;;;;;;;3.45;2.40;;;;;;;;;;4986266;28;20221;-83
2022/08/21 15:21:32;;;;;;;4.38;2.50;;;;;;;;;;4997411;28;20179;-83
2022/08/21 15:24:36;;;;;;;2.88;2.50;;;;;;;;;;4974882;28;20196;-82
2022/08/21 15:27:40;;;;;;;2.90;2.60;;;;;;;;;;4996837;28;20205;-84
2022/08/21 15:30:45;;;;;;;4.97;2.38;;;;;;;;;;4975309;28;20189;-83
2022/08/21 15:33:49;;;;;;;3.50;2.17;;;;;;;;;;4986584;28;20194;-83
2022/08/21 15:36:57;;;;;;;4.32;2.75;;;;;;;;;;4975365;28;20200;-82
2022/08/21 15:40:03;;;;;;;3.95;2.53;;;;;;;;;;4985671;28;20192;-83
2022/08/21 15:43:20;;;;;;;3.00;2.50;;;;;;;;;;4986708;28;20178;-84
2022/08/21 15:46:24;;;;;;;8.85;2.80;;;;;;;;;;4976799;28;20184;-83
2022/08/21 15:49:28;;;;;;;2.97;2.67;;;;;;;;;;4976608;28;20219;-83
2022/08/21 15:52:33;;;;;;;5.78;2.80;;;;;;;;;;4997985;28;20221;-83
2022/08/21 15:55:37;;;;;;;3.33;2.58;;;;;;;;;;4987902;28;20186;-83
2022/08/21 15:58:41;;;;;;;4.10;2.45;;;;;;;;;;4986679;28;20216;-83
2022/08/21 16:01:45;;;;;;;5.38;2.92;;;;;;;;;;4986324;28;20196;-83
2022/08/21 16:04:50;;;;;;;4.65;2.80;;;;;;;;;;4987379;28;20195;-83
2022/08/21 16:07:54;;;;;;;4.38;2.63;;;;;;;;;;4988782;28;20221;-83
2022/08/21 16:10:59;;;;;;;3.25;2.95;;;;;;;;;;4976158;28;20214;-84
2022/08/21 16:14:04;;;;;;;6.22;2.80;;;;;;;;;;4987662;28;20200;-83
2022/08/21 16:17:08;;;;;;;4.68;2.90;;;;;;;;;;4982425;28;20185;-83
2022/08/21 16:20:18;;;;;;;5.68;2.90;;;;;;;;;;4980811;28;20543;-83
2022/08/21 16:23:22;;;;;;;4.95;3.33;;;;;;;;;;4994218;28;20185;-85
2022/08/21 16:26:27;;;;;;;4.30;2.97;;;;;;;;;;4965213;28;20668;-85
2022/08/21 16:29:35;;;;;;;4.70;2.77;;;;;;;;;;4977939;28;20224;-85
2022/08/21 16:32:39;;;;;;;4.70;2.90;;;;;;;;;;4976080;28;20568;-84
2022/08/21 16:35:43;;;;;;;4.87;3.13;;;;;;;;;;4958915;28;20196;-85
2022/08/21 16:38:47;;;;;;;5.00;3.00;;;;;;;;;;4965348;28;20213;-85
2022/08/21 16:41:52;;;;;;;4.83;2.90;;;;;;;;;;4971336;28;20195;-85
2022/08/21 16:44:56;;;;;;;5.83;3.03;;;;;;;;;;4974104;28;20182;-84
2022/08/21 16:48:03;;;;;;;3.70;3.07;;;;;;;;;;4996107;28;20224;-84
2022/08/21 16:51:07;;;;;;;4.93;3.07;;;;;;;;;;4983507;28;20193;-85
2022/08/21 16:54:12;;;;;;;4.37;2.70;;;;;;;;;;4983517;28;20630;-84
2022/08/21 16:57:17;;;;;;;4.00;2.70;;;;;;;;;;4983364;28;20184;-85
2022/08/21 17:00:21;;;;;;;4.93;2.80;;;;;;;;;;4979052;28;20183;-85
2022/08/21 17:03:35;;;;;;;3.27;2.67;;;;;;;;;;4964956;28;20656;-84
2022/08/21 17:06:39;;;;;;;4.87;2.97;;;;;;;;;;4989274;28;20193;-85
2022/08/21 17:09:43;;;;;;;6.20;3.00;;;;;;;;;;4964448;28;20222;-85
2022/08/21 17:12:54;;;;;;;3.50;2.83;;;;;;;;;;4955407;28;20568;-85
2022/08/21 17:15:58;;;;;;;3.20;2.90;;;;;;;;;;5004574;23;20236;-86
2022/08/21 17:19:05;;;;;;;7.37;3.10;;;;;;;;;;4975086;28;20193;-86
2022/08/21 17:22:09;;;;;;;3.37;2.87;;;;;;;;;;4997547;28;20186;-87
2022/08/21 17:25:14;;;;;;;6.70;2.93;;;;;;;;;;4986361;28;20177;-84
2022/08/21 17:28:24;;;;;;;5.37;2.97;;;;;;;;;;4977785;28;20190;-84
2022/08/21 17:31:29;;;;;;;3.80;3.00;;;;;;;;;;4977345;28;20201;-87
2022/08/21 17:34:33;;;;;;;7.33;2.97;;;;;;;;;;4967230;28;20530;-86
2022/08/21 17:37:37;;;;;;;3.90;2.80;;;;;;;;;;4966737;28;20218;-87
2022/08/21 17:40:42;;;;;;;5.83;2.77;;;;;;;;;;4967694;28;20185;-87
2022/08/21 17:43:46;;;;;;;5.80;3.20;;;;;;;;;;4948219;29;20175;-87
2022/08/21 17:46:51;;;;;;;3.40;3.10;;;;;;;;;;4954172;28;20232;-87
2022/08/21 17:49:55;;;;;;;4.03;3.60;;;;;;;;;;4966649;28;20186;-87
2022/08/21 17:52:59;;;;;;;7.23;3.30;;;;;;;;;;4977546;28;20226;-87
2022/08/21 17:56:04;;;;;;;3.53;2.80;;;;;;;;;;4966836;28;20687;-86
2022/08/21 17:59:09;;;;;;;3.37;3.03;;;;;;;;;;4955237;28;20178;-86
2022/08/21 18:02:14;;;;;;;3.07;2.73;;;;;;;;;;4966816;28;20190;-85
2022/08/21 18:05:20;;;;;;;4.17;3.00;;;;;;;;;;4966597;28;20683;-90
2022/08/21 18:08:24;;;;;;;4.60;3.27;;;;;;;;;;4955057;28;20198;-87
2022/08/21 18:11:29;;;;;;;4.33;3.63;;;;;;;;;;4936587;29;20183;-87
2022/08/21 18:14:36;;;;;;;3.80;3.47;;;;;;;;;;4958086;29;20180;-87
2022/08/21 18:17:44;;;;;;;3.50;3.10;;;;;;;;;;4963493;28;20243;-87
2022/08/21 18:20:48;;;;;;;4.33;3.80;;;;;;;;;;4965506;28;20199;-87
2022/08/21 18:23:56;;;;;;;4.10;3.63;;;;;;;;;;4955186;28;20179;-88
2022/08/21 18:27:01;;;;;;;7.57;3.17;;;;;;;;;;4965549;28;20578;-87
2022/08/21 18:30:07;;;;;;;5.03;3.37;;;;;;;;;;4954722;28;20202;-87
2022/08/21 18:33:12;;;;;;;5.17;3.60;;;;;;;;;;4954750;28;20207;-87
2022/08/21 18:36:16;;;;;;;4.37;3.93;;;;;;;;;;4954714;28;20214;-87
2022/08/21 18:39:22;;;;;;;4.07;3.77;;;;;;;;;;4966007;28;20187;-87
2022/08/21 18:42:30;;;;;;;5.27;4.07;;;;;;;;;;4954724;28;20178;-86
2022/08/21 18:45:35;;;;;;;4.47;3.97;;;;;;;;;;4965768;28;20198;-86
2022/08/21 18:48:41;;;;;;;4.97;3.90;;;;;;;;;;4976138;28;20543;-87
2022/08/21 18:51:46;;;;;;;8.10;3.80;;;;;;;;;;4954176;28;20183;-87